map of SUN home
SUN - Airport
Location
City:  Hailey, Idaho, United States
Name:Friedman Memorial Airport
ICAO:KSUN
IATA:SUN
FAA LID:SUN

Details
Type:Airport (Part 139 Class I)
Use:Public/Civil
Latitude:43°30'14"N (43.503781)
Longitude:114°17'44"W (-114.295557)
Datum:WGS 1984
Elevation:5319 ft (1621 m)
Variation:12.73°E (WMM2015 magnetic declination)
-0.11° annual change
Runways:1
Longest:7550 × 100 ft (2301 × 30.5 m), paved

Time
Time Zone:UTC-7 (DST-6)
Local Time:

Weather
METAR:KSUN 142350Z 13008KT 10SM SKC M01/M04 A3038
TAF:KSUN 142323Z 1500/1606 15007KT P6SM FEW120
FM150500 32008KT P6SM SKC
FM151700 15006KT P6SM SKC
AMD LTD TO CLD VIS AND WIND 1506/1514

Related Locations
Nearby:
Farthest:ZSE: 10792 mi / 17369 km
St-Pierre (St-Pierre de la Réunion) [Pierrefonds], RE

Find:

   beyond  
but within

Other Information
Maps:
Delays:
NOTAMs:
Links:
Sources:

  
flag of United States
flag of Idaho
  

Airport Diagram

Airport diagram for SUN

Airport diagram PDF

Sectional Chart

Flight Planning
at skyvector.com

Satellite Image

Google Maps Satellite view

 

Copyright © 2004-2017 Karl L. Swartz. All rights reserved.
The Great Circle Mapper name and logo are trademarks of the Great Circle Mapper.
All other trademarks mentioned herein belong to their respective owners.
Please see credits for attibutions and further copyright information.

  Follow gcmap on Facebook Follow gcmap on Twitter Follow gcmap on Google+ GCmap on LinkedIn

hCard Microformat

Geo Microformat